sensor_id;sensor_type;location;lat;lon;timestamp;pressure;altitude;pressure_sealevel;temperature;humidity
62051;BME280;48008;51.204;6.766;2022-10-31T00:00:28;101639.88;;;14.07;91.61
62051;BME280;48008;51.204;6.766;2022-10-31T00:02:55;101640.34;;;14.02;91.38
62051;BME280;48008;51.204;6.766;2022-10-31T00:05:21;101632.56;;;13.91;92.04
62051;BME280;48008;51.204;6.766;2022-10-31T00:07:52;101615.97;;;13.97;92.30
62051;BME280;48008;51.204;6.766;2022-10-31T00:10:19;101621.47;;;13.96;92.93
62051;BME280;48008;51.204;6.766;2022-10-31T00:12:45;101632.38;;;13.85;93.09
62051;BME280;48008;51.204;6.766;2022-10-31T00:15:12;101632.38;;;13.85;93.30
62051;BME280;48008;51.204;6.766;2022-10-31T00:17:39;101642.19;;;13.84;93.76
62051;BME280;48008;51.204;6.766;2022-10-31T00:20:06;101639.84;;;13.81;93.74
62051;BME280;48008;51.204;6.766;2022-10-31T00:22:32;101636.69;;;13.86;93.50
62051;BME280;48008;51.204;6.766;2022-10-31T00:24:59;101634.19;;;13.84;93.55
62051;BME280;48008;51.204;6.766;2022-10-31T00:27:26;101634.38;;;13.82;93.52
62051;BME280;48008;51.204;6.766;2022-10-31T00:29:53;101636.31;;;13.80;94.20
62051;BME280;48008;51.204;6.766;2022-10-31T00:32:20;101635.72;;;13.87;94.09
62051;BME280;48008;51.204;6.766;2022-10-31T00:34:47;101629.72;;;13.85;94.00
62051;BME280;48008;51.204;6.766;2022-10-31T00:37:14;101629.38;;;13.88;93.23
62051;BME280;48008;51.204;6.766;2022-10-31T00:39:42;101642.72;;;13.88;93.82
62051;BME280;48008;51.204;6.766;2022-10-31T00:42:08;101637.84;;;13.83;93.74
62051;BME280;48008;51.204;6.766;2022-10-31T00:44:35;101631.91;;;13.71;94.00
62051;BME280;48008;51.204;6.766;2022-10-31T00:47:02;101639.56;;;13.66;94.31
62051;BME280;48008;51.204;6.766;2022-10-31T00:49:28;101638.94;;;13.72;94.51
62051;BME280;48008;51.204;6.766;2022-10-31T00:51:55;101647.31;;;13.77;94.18
62051;BME280;48008;51.204;6.766;2022-10-31T00:54:22;101657.66;;;13.80;93.98
62051;BME280;48008;51.204;6.766;2022-10-31T00:56:49;101656.53;;;13.83;94.30
62051;BME280;48008;51.204;6.766;2022-10-31T00:59:15;101661.91;;;13.91;93.92
62051;BME280;48008;51.204;6.766;2022-10-31T01:01:42;101669.09;;;13.91;93.85
62051;BME280;48008;51.204;6.766;2022-10-31T01:04:09;101660.56;;;13.87;94.02
62051;BME280;48008;51.204;6.766;2022-10-31T01:06:36;101662.59;;;13.93;93.88
62051;BME280;48008;51.204;6.766;2022-10-31T01:09:02;101651.47;;;13.98;93.62
62051;BME280;48008;51.204;6.766;2022-10-31T01:11:29;101653.16;;;13.99;93.42
62051;BME280;48008;51.204;6.766;2022-10-31T01:13:56;101645.16;;;13.99;92.80
62051;BME280;48008;51.204;6.766;2022-10-31T01:16:25;101657.97;;;13.95;93.32
62051;BME280;48008;51.204;6.766;2022-10-31T01:18:52;101648.44;;;13.93;93.05
62051;BME280;48008;51.204;6.766;2022-10-31T01:21:21;101654.78;;;13.92;92.95
62051;BME280;48008;51.204;6.766;2022-10-31T01:23:50;101654.78;;;13.92;92.75
62051;BME280;48008;51.204;6.766;2022-10-31T01:26:20;101650.13;;;13.94;92.72
62051;BME280;48008;51.204;6.766;2022-10-31T01:28:51;101648.56;;;13.91;92.12
62051;BME280;48008;51.204;6.766;2022-10-31T01:31:20;101642.25;;;13.92;92.02
62051;BME280;48008;51.204;6.766;2022-10-31T01:33:48;101637.22;;;13.89;92.03
62051;BME280;48008;51.204;6.766;2022-10-31T01:36:25;101635.94;;;13.93;92.41
62051;BME280;48008;51.204;6.766;2022-10-31T01:38:53;101625.88;;;13.87;92.79
62051;BME280;48008;51.204;6.766;2022-10-31T01:41:24;101622.38;;;13.87;92.48
62051;BME280;48008;51.204;6.766;2022-10-31T01:43:55;101618.88;;;13.86;92.93
62051;BME280;48008;51.204;6.766;2022-10-31T01:46:24;101617.19;;;13.85;93.13
62051;BME280;48008;51.204;6.766;2022-10-31T01:48:53;101626.50;;;13.81;93.17
62051;BME280;48008;51.204;6.766;2022-10-31T01:51:27;101620.69;;;13.86;93.02
62051;BME280;48008;51.204;6.766;2022-10-31T01:53:58;101626.03;;;13.86;92.62
62051;BME280;48008;51.204;6.766;2022-10-31T01:56:26;101618.72;;;13.88;93.36
62051;BME280;48008;51.204;6.766;2022-10-31T01:58:54;101608.22;;;13.86;93.33
62051;BME280;48008;51.204;6.766;2022-10-31T02:01:23;101608.22;;;13.86;93.38
62051;BME280;48008;51.204;6.766;2022-10-31T02:03:50;101604.03;;;13.83;93.31
62051;BME280;48008;51.204;6.766;2022-10-31T02:06:29;101606.00;;;13.81;93.36
62051;BME280;48008;51.204;6.766;2022-10-31T02:09:00;101616.13;;;13.78;93.31
62051;BME280;48008;51.204;6.766;2022-10-31T02:11:28;101607.31;;;13.77;92.77
62051;BME280;48008;51.204;6.766;2022-10-31T02:13:56;101613.38;;;13.70;93.45
62051;BME280;48008;51.204;6.766;2022-10-31T02:16:24;101609.75;;;13.71;92.96
62051;BME280;48008;51.204;6.766;2022-10-31T02:18:51;101612.41;;;13.71;93.24
62051;BME280;48008;51.204;6.766;2022-10-31T02:21:54;101612.66;;;13.59;92.82
62051;BME280;48008;51.204;6.766;2022-10-31T02:24:33;101615.22;;;13.51;93.05
62051;BME280;48008;51.204;6.766;2022-10-31T02:27:17;101610.22;;;13.48;92.89
62051;BME280;48008;51.204;6.766;2022-10-31T02:30:03;101622.00;;;13.46;93.21
62051;BME280;48008;51.204;6.766;2022-10-31T02:35:43;101625.81;;;13.43;92.69
62051;BME280;48008;51.204;6.766;2022-10-31T02:38:51;101623.44;;;13.40;93.14
62051;BME280;48008;51.204;6.766;2022-10-31T02:41:37;101620.53;;;13.33;93.63
62051;BME280;48008;51.204;6.766;2022-10-31T02:44:35;101627.41;;;13.36;93.71
62051;BME280;48008;51.204;6.766;2022-10-31T02:47:15;101636.72;;;13.32;94.08
62051;BME280;48008;51.204;6.766;2022-10-31T02:49:50;101634.56;;;13.35;94.28
62051;BME280;48008;51.204;6.766;2022-10-31T02:52:23;101622.97;;;13.27;94.00
62051;BME280;48008;51.204;6.766;2022-10-31T02:54:52;101615.72;;;13.19;94.44
62051;BME280;48008;51.204;6.766;2022-10-31T02:57:35;101616.28;;;13.40;93.52
62051;BME280;48008;51.204;6.766;2022-10-31T03:00:06;101613.09;;;13.37;93.40
62051;BME280;48008;51.204;6.766;2022-10-31T03:02:46;101624.91;;;13.34;93.38
62051;BME280;48008;51.204;6.766;2022-10-31T03:05:40;101620.09;;;13.38;93.48
62051;BME280;48008;51.204;6.766;2022-10-31T03:10:58;101627.69;;;13.33;93.85
62051;BME280;48008;51.204;6.766;2022-10-31T03:13:34;101629.69;;;13.31;93.89
62051;BME280;48008;51.204;6.766;2022-10-31T03:18:53;101624.47;;;13.29;93.99
62051;BME280;48008;51.204;6.766;2022-10-31T03:21:27;101629.13;;;13.27;94.22
62051;BME280;48008;51.204;6.766;2022-10-31T03:23:59;101623.38;;;13.22;94.07
62051;BME280;48008;51.204;6.766;2022-10-31T03:26:28;101614.47;;;13.13;93.84
62051;BME280;48008;51.204;6.766;2022-10-31T03:28:59;101613.09;;;13.09;94.30
62051;BME280;48008;51.204;6.766;2022-10-31T03:32:05;101607.09;;;13.07;94.60
62051;BME280;48008;51.204;6.766;2022-10-31T03:34:19;101608.06;;;13.06;94.05
62051;BME280;48008;51.204;6.766;2022-10-31T03:36:49;101616.22;;;13.04;94.19
62051;BME280;48008;51.204;6.766;2022-10-31T03:39:19;101615.81;;;12.99;94.71
62051;BME280;48008;51.204;6.766;2022-10-31T03:41:54;101617.47;;;13.00;94.83
62051;BME280;48008;51.204;6.766;2022-10-31T03:44:22;101612.63;;;12.96;94.84
62051;BME280;48008;51.204;6.766;2022-10-31T03:46:57;101602.25;;;12.93;94.84
62051;BME280;48008;51.204;6.766;2022-10-31T03:49:24;101605.31;;;12.98;94.12
62051;BME280;48008;51.204;6.766;2022-10-31T03:51:59;101608.28;;;12.95;94.41
62051;BME280;48008;51.204;6.766;2022-10-31T03:54:36;101607.88;;;12.90;94.75
62051;BME280;48008;51.204;6.766;2022-10-31T03:57:16;101612.81;;;12.84;94.31
62051;BME280;48008;51.204;6.766;2022-10-31T03:59:51;101609.16;;;12.85;94.55
62051;BME280;48008;51.204;6.766;2022-10-31T04:02:22;101600.88;;;12.89;94.95
62051;BME280;48008;51.204;6.766;2022-10-31T04:04:51;101600.06;;;12.88;94.90
62051;BME280;48008;51.204;6.766;2022-10-31T04:07:19;101609.00;;;12.87;94.69
62051;BME280;48008;51.204;6.766;2022-10-31T04:09:50;101599.03;;;12.89;95.17
62051;BME280;48008;51.204;6.766;2022-10-31T04:12:20;101605.19;;;12.90;94.86
62051;BME280;48008;51.204;6.766;2022-10-31T04:14:57;101611.94;;;12.94;94.73
62051;BME280;48008;51.204;6.766;2022-10-31T04:17:27;101609.66;;;12.99;94.75
62051;BME280;48008;51.204;6.766;2022-10-31T04:19:59;101608.38;;;13.03;94.68
62051;BME280;48008;51.204;6.766;2022-10-31T04:22:25;101616.59;;;13.10;94.62
62051;BME280;48008;51.204;6.766;2022-10-31T04:24:52;101618.00;;;13.14;94.03
62051;BME280;48008;51.204;6.766;2022-10-31T04:27:19;101606.72;;;13.20;93.87
62051;BME280;48008;51.204;6.766;2022-10-31T04:29:45;101600.56;;;13.19;93.42
62051;BME280;48008;51.204;6.766;2022-10-31T04:32:13;101599.94;;;13.25;93.28
62051;BME280;48008;51.204;6.766;2022-10-31T04:34:39;101604.31;;;13.27;92.70
62051;BME280;48008;51.204;6.766;2022-10-31T04:37:06;101605.97;;;13.28;93.09
62051;BME280;48008;51.204;6.766;2022-10-31T04:39:33;101599.81;;;13.27;92.93
62051;BME280;48008;51.204;6.766;2022-10-31T04:42:19;101603.63;;;13.24;93.11
62051;BME280;48008;51.204;6.766;2022-10-31T04:44:46;101601.41;;;13.20;93.00
62051;BME280;48008;51.204;6.766;2022-10-31T04:47:13;101585.41;;;13.20;93.17
62051;BME280;48008;51.204;6.766;2022-10-31T04:49:41;101594.56;;;13.17;93.14
62051;BME280;48008;51.204;6.766;2022-10-31T04:52:10;101597.50;;;13.14;93.00
62051;BME280;48008;51.204;6.766;2022-10-31T04:54:37;101605.50;;;13.14;92.84
62051;BME280;48008;51.204;6.766;2022-10-31T04:57:23;101604.56;;;13.05;93.16
62051;BME280;48008;51.204;6.766;2022-10-31T04:59:50;101595.75;;;13.05;93.19
62051;BME280;48008;51.204;6.766;2022-10-31T05:02:17;101577.94;;;13.05;93.33
62051;BME280;48008;51.204;6.766;2022-10-31T05:04:51;101583.41;;;13.04;93.22
62051;BME280;48008;51.204;6.766;2022-10-31T05:07:18;101576.28;;;13.04;93.18
62051;BME280;48008;51.204;6.766;2022-10-31T05:09:44;101580.91;;;13.02;93.21
62051;BME280;48008;51.204;6.766;2022-10-31T05:12:12;101577.94;;;13.05;93.10
62051;BME280;48008;51.204;6.766;2022-10-31T05:14:58;101576.97;;;13.06;92.89
62051;BME280;48008;51.204;6.766;2022-10-31T05:17:46;101570.25;;;13.02;93.24
62051;BME280;48008;51.204;6.766;2022-10-31T05:20:33;101571.91;;;13.03;93.28
62051;BME280;48008;51.204;6.766;2022-10-31T05:23:10;101574.59;;;13.03;93.18
62051;BME280;48008;51.204;6.766;2022-10-31T05:25:39;101577.94;;;13.05;93.10
62051;BME280;48008;51.204;6.766;2022-10-31T05:28:06;101579.47;;;13.08;92.70
62051;BME280;48008;51.204;6.766;2022-10-31T05:30:34;101583.25;;;13.05;92.73
62051;BME280;48008;51.204;6.766;2022-10-31T05:33:02;101570.56;;;12.99;93.07
62051;BME280;48008;51.204;6.766;2022-10-31T05:35:49;101576.97;;;13.06;92.98
62051;BME280;48008;51.204;6.766;2022-10-31T05:38:36;101575.19;;;12.97;93.19
62051;BME280;48008;51.204;6.766;2022-10-31T05:41:22;101570.44;;;12.91;93.25
62051;BME280;48008;51.204;6.766;2022-10-31T05:43:49;101570.84;;;12.96;93.06
62051;BME280;48008;51.204;6.766;2022-10-31T05:46:20;101574.78;;;12.92;93.00
62051;BME280;48008;51.204;6.766;2022-10-31T05:49:07;101568.47;;;12.93;93.00
62051;BME280;48008;51.204;6.766;2022-10-31T05:51:53;101570.00;;;12.96;93.06
62051;BME280;48008;51.204;6.766;2022-10-31T05:54:26;101565.66;;;12.95;92.56
62051;BME280;48008;51.204;6.766;2022-10-31T05:56:53;101568.63;;;12.92;92.45
62051;BME280;48008;51.204;6.766;2022-10-31T05:59:20;101573.25;;;12.90;93.06
62051;BME280;48008;51.204;6.766;2022-10-31T06:01:47;101566.41;;;12.87;93.30
62051;BME280;48008;51.204;6.766;2022-10-31T06:04:27;101571.06;;;12.85;92.84
62051;BME280;48008;51.204;6.766;2022-10-31T06:06:53;101559.84;;;12.81;93.28
62051;BME280;48008;51.204;6.766;2022-10-31T06:09:21;101563.50;;;12.80;93.48
62051;BME280;48008;51.204;6.766;2022-10-31T06:11:48;101567.84;;;12.81;93.49
62051;BME280;48008;51.204;6.766;2022-10-31T06:14:35;101568.00;;;12.80;93.42
62051;BME280;48008;51.204;6.766;2022-10-31T06:17:02;101567.03;;;12.81;93.59
62051;BME280;48008;51.204;6.766;2022-10-31T06:19:49;101565.88;;;12.83;93.37
62051;BME280;48008;51.204;6.766;2022-10-31T06:22:24;101565.88;;;12.83;93.55
62051;BME280;48008;51.204;6.766;2022-10-31T06:24:51;101554.00;;;12.78;94.09
62051;BME280;48008;51.204;6.766;2022-10-31T06:27:26;101561.16;;;12.77;94.07
62051;BME280;48008;51.204;6.766;2022-10-31T06:29:53;101557.09;;;12.73;93.91
62051;BME280;48008;51.204;6.766;2022-10-31T06:32:27;101563.94;;;12.76;93.80
62051;BME280;48008;51.204;6.766;2022-10-31T06:34:54;101560.06;;;12.70;94.08
62051;BME280;48008;51.204;6.766;2022-10-31T06:37:22;101560.34;;;12.67;94.02
62051;BME280;48008;51.204;6.766;2022-10-31T06:39:49;101565.53;;;12.68;93.74
62051;BME280;48008;51.204;6.766;2022-10-31T06:42:17;101570.25;;;12.75;93.72
62051;BME280;48008;51.204;6.766;2022-10-31T06:44:43;101566.75;;;12.74;94.05
62051;BME280;48008;51.204;6.766;2022-10-31T06:47:30;101558.78;;;12.74;94.40
62051;BME280;48008;51.204;6.766;2022-10-31T06:50:03;101561.97;;;12.78;94.28
62051;BME280;48008;51.204;6.766;2022-10-31T06:52:29;101559.75;;;12.73;93.67
62051;BME280;48008;51.204;6.766;2022-10-31T06:54:56;101562.31;;;12.65;94.25
62051;BME280;48008;51.204;6.766;2022-10-31T06:57:23;101563.97;;;12.66;94.47
62051;BME280;48008;51.204;6.766;2022-10-31T06:59:50;101568.88;;;12.71;94.69
62051;BME280;48008;51.204;6.766;2022-10-31T07:02:20;101567.59;;;12.75;94.43
62051;BME280;48008;51.204;6.766;2022-10-31T07:04:48;101566.16;;;12.80;94.68
62051;BME280;48008;51.204;6.766;2022-10-31T07:07:16;101566.69;;;12.84;93.99
62051;BME280;48008;51.204;6.766;2022-10-31T07:09:44;101570.75;;;12.88;94.18
62051;BME280;48008;51.204;6.766;2022-10-31T07:12:15;101576.09;;;12.88;94.28
62051;BME280;48008;51.204;6.766;2022-10-31T07:14:50;101572.41;;;12.89;94.32
62051;BME280;48008;51.204;6.766;2022-10-31T07:17:17;101572.28;;;12.91;94.16
62051;BME280;48008;51.204;6.766;2022-10-31T07:19:46;101580.66;;;12.96;94.24
62051;BME280;48008;51.204;6.766;2022-10-31T07:22:15;101586.66;;;12.98;93.96
62051;BME280;48008;51.204;6.766;2022-10-31T07:24:43;101582.03;;;13.00;93.56
62051;BME280;48008;51.204;6.766;2022-10-31T07:27:38;101575.72;;;13.01;93.58
62051;BME280;48008;51.204;6.766;2022-10-31T07:30:10;101580.53;;;12.97;93.57
62051;BME280;48008;51.204;6.766;2022-10-31T07:32:47;101574.44;;;13.05;92.83
62051;BME280;48008;51.204;6.766;2022-10-31T07:35:18;101572.03;;;13.12;92.86
62051;BME280;48008;51.204;6.766;2022-10-31T07:37:47;101572.56;;;13.15;92.66
62051;BME280;48008;51.204;6.766;2022-10-31T07:40:15;101583.56;;;13.20;91.96
62051;BME280;48008;51.204;6.766;2022-10-31T07:42:44;101587.63;;;13.24;92.04
62051;BME280;48008;51.204;6.766;2022-10-31T07:45:31;101591.41;;;13.32;91.14
62051;BME280;48008;51.204;6.766;2022-10-31T07:48:18;101594.75;;;13.34;90.88
62051;BME280;48008;51.204;6.766;2022-10-31T07:51:04;101595.59;;;13.34;91.40
62051;BME280;48008;51.204;6.766;2022-10-31T07:53:53;101596.56;;;13.33;91.57
62051;BME280;48008;51.204;6.766;2022-10-31T07:56:23;101598.53;;;13.31;91.39
62051;BME280;48008;51.204;6.766;2022-10-31T07:58:51;101599.16;;;13.43;91.28
62051;BME280;48008;51.204;6.766;2022-10-31T08:01:17;101600.28;;;13.58;90.73
62051;BME280;48008;51.204;6.766;2022-10-31T08:03:57;101584.53;;;13.65;91.28
62051;BME280;48008;51.204;6.766;2022-10-31T08:06:43;101595.97;;;13.75;91.10
62051;BME280;48008;51.204;6.766;2022-10-31T08:09:23;101588.91;;;13.92;90.34
62051;BME280;48008;51.204;6.766;2022-10-31T08:11:52;101580.81;;;14.02;89.62
62051;BME280;48008;51.204;6.766;2022-10-31T08:14:19;101582.50;;;14.03;89.09
62051;BME280;48008;51.204;6.766;2022-10-31T08:16:46;101580.50;;;14.05;88.68
62051;BME280;48008;51.204;6.766;2022-10-31T08:19:13;101576.91;;;14.14;87.88
62051;BME280;48008;51.204;6.766;2022-10-31T08:21:40;101570.16;;;14.28;87.61
62051;BME280;48008;51.204;6.766;2022-10-31T08:24:08;101581.28;;;14.24;86.94
62051;BME280;48008;51.204;6.766;2022-10-31T08:26:35;101572.16;;;14.26;86.62
62051;BME280;48008;51.204;6.766;2022-10-31T08:29:04;101571.19;;;14.35;86.28
62051;BME280;48008;51.204;6.766;2022-10-31T08:31:32;101576.72;;;14.42;86.69
62051;BME280;48008;51.204;6.766;2022-10-31T08:34:21;101573.88;;;14.44;85.64
62051;BME280;48008;51.204;6.766;2022-10-31T08:37:08;101575.59;;;14.45;85.58
62051;BME280;48008;51.204;6.766;2022-10-31T08:39:40;101573.38;;;14.40;84.41
62051;BME280;48008;51.204;6.766;2022-10-31T08:42:06;101573.75;;;14.53;84.45
62051;BME280;48008;51.204;6.766;2022-10-31T08:44:33;101575.56;;;14.71;84.12
62051;BME280;48008;51.204;6.766;2022-10-31T08:47:00;101572.22;;;14.69;82.57
62051;BME280;48008;51.204;6.766;2022-10-31T08:49:30;101562.69;;;14.66;83.29
62051;BME280;48008;51.204;6.766;2022-10-31T08:51:56;101557.88;;;14.70;83.42
62051;BME280;48008;51.204;6.766;2022-10-31T08:54:28;101562.56;;;14.76;82.24
62051;BME280;48008;51.204;6.766;2022-10-31T08:56:58;101554.84;;;14.73;82.07
62051;BME280;48008;51.204;6.766;2022-10-31T08:59:37;101547.88;;;14.80;83.36
62051;BME280;48008;51.204;6.766;2022-10-31T09:02:18;101548.75;;;14.89;83.26
62051;BME280;48008;51.204;6.766;2022-10-31T09:04:47;101550.59;;;14.96;82.60
62051;BME280;48008;51.204;6.766;2022-10-31T09:07:14;101552.63;;;15.03;82.14
62051;BME280;48008;51.204;6.766;2022-10-31T09:09:45;101545.63;;;15.10;81.35
62051;BME280;48008;51.204;6.766;2022-10-31T09:12:12;101548.97;;;15.12;81.23
62051;BME280;48008;51.204;6.766;2022-10-31T09:14:59;101539.94;;;15.13;80.86
62051;BME280;48008;51.204;6.766;2022-10-31T09:17:36;101540.13;;;15.28;81.46
62051;BME280;48008;51.204;6.766;2022-10-31T09:20:15;101530.94;;;15.22;81.63
62051;BME280;48008;51.204;6.766;2022-10-31T09:22:41;101532.44;;;15.25;81.12
62051;BME280;48008;51.204;6.766;2022-10-31T09:25:09;101522.56;;;15.17;79.98
62051;BME280;48008;51.204;6.766;2022-10-31T09:27:38;101525.75;;;15.29;79.96
62051;BME280;48008;51.204;6.766;2022-10-31T09:30:06;101534.47;;;15.47;79.52
62051;BME280;48008;51.204;6.766;2022-10-31T09:32:33;101527.09;;;15.58;79.39
62051;BME280;48008;51.204;6.766;2022-10-31T09:35:02;101521.41;;;15.61;79.35
62051;BME280;48008;51.204;6.766;2022-10-31T09:37:29;101512.22;;;15.71;78.58
62051;BME280;48008;51.204;6.766;2022-10-31T09:39:55;101513.06;;;15.72;78.00
62051;BME280;48008;51.204;6.766;2022-10-31T09:45:41;101503.66;;;16.01;76.43
62051;BME280;48008;51.204;6.766;2022-10-31T09:51:53;101496.09;;;16.12;76.92
62051;BME280;48008;51.204;6.766;2022-10-31T09:54:36;101493.63;;;16.03;76.26
62051;BME280;48008;51.204;6.766;2022-10-31T09:57:12;101496.97;;;16.05;75.99
62051;BME280;48008;51.204;6.766;2022-10-31T09:59:43;101487.91;;;16.14;75.69
62051;BME280;48008;51.204;6.766;2022-10-31T10:02:18;101486.72;;;16.17;75.97
62051;BME280;48008;51.204;6.766;2022-10-31T10:05:10;101494.19;;;16.29;76.11
62051;BME280;48008;51.204;6.766;2022-10-31T10:07:50;101484.84;;;16.34;75.37
62051;BME280;48008;51.204;6.766;2022-10-31T10:10:51;101470.19;;;16.44;75.32
62051;BME280;48008;51.204;6.766;2022-10-31T10:17:27;101461.63;;;16.80;73.87
62051;BME280;48008;51.204;6.766;2022-10-31T10:25:40;101459.72;;;16.97;72.67
62051;BME280;48008;51.204;6.766;2022-10-31T10:28:29;101456.25;;;16.88;73.76
62051;BME280;48008;51.204;6.766;2022-10-31T10:31:05;101447.84;;;16.92;74.12
62051;BME280;48008;51.204;6.766;2022-10-31T10:33:39;101452.13;;;16.78;75.39
62051;BME280;48008;51.204;6.766;2022-10-31T10:36:13;101442.09;;;16.72;75.44
62051;BME280;48008;51.204;6.766;2022-10-31T10:41:30;101442.03;;;16.80;74.86
62051;BME280;48008;51.204;6.766;2022-10-31T10:43:59;101429.56;;;16.95;73.33
62051;BME280;48008;51.204;6.766;2022-10-31T10:46:40;101430.56;;;17.17;73.19
62051;BME280;48008;51.204;6.766;2022-10-31T10:49:34;101408.06;;;17.41;70.61
62051;BME280;48008;51.204;6.766;2022-10-31T10:52:32;101407.22;;;18.15;67.34
62051;BME280;48008;51.204;6.766;2022-10-31T10:55:30;101409.13;;;19.16;64.53
62051;BME280;48008;51.204;6.766;2022-10-31T10:58:02;101405.22;;;19.47;63.49
62051;BME280;48008;51.204;6.766;2022-10-31T11:00:46;101404.78;;;19.43;61.54
62051;BME280;48008;51.204;6.766;2022-10-31T11:03:16;101410.41;;;19.55;63.00
62051;BME280;48008;51.204;6.766;2022-10-31T11:05:48;101424.66;;;19.49;61.96
62051;BME280;48008;51.204;6.766;2022-10-31T11:08:36;101407.72;;;19.83;61.48
62051;BME280;48008;51.204;6.766;2022-10-31T11:11:08;101394.94;;;19.99;61.08
62051;BME280;48008;51.204;6.766;2022-10-31T11:13:37;101392.28;;;20.67;59.15
62051;BME280;48008;51.204;6.766;2022-10-31T11:16:08;101386.44;;;20.57;60.12
62051;BME280;48008;51.204;6.766;2022-10-31T11:18:39;101386.34;;;20.23;59.77
62051;BME280;48008;51.204;6.766;2022-10-31T11:21:17;101373.91;;;20.22;60.11
62051;BME280;48008;51.204;6.766;2022-10-31T11:23:45;101372.69;;;20.31;60.33
62051;BME280;48008;51.204;6.766;2022-10-31T11:26:20;101376.38;;;20.17;60.58
62051;BME280;48008;51.204;6.766;2022-10-31T11:28:56;101374.97;;;20.21;60.29
62051;BME280;48008;51.204;6.766;2022-10-31T11:31:24;101382.88;;;20.43;60.66
62051;BME280;48008;51.204;6.766;2022-10-31T11:34:00;101374.97;;;20.35;59.81
62051;BME280;48008;51.204;6.766;2022-10-31T11:36:30;101366.09;;;20.47;59.77
62051;BME280;48008;51.204;6.766;2022-10-31T11:39:00;101373.50;;;20.25;61.26
62051;BME280;48008;51.204;6.766;2022-10-31T11:41:33;101376.59;;;20.16;62.13
62051;BME280;48008;51.204;6.766;2022-10-31T11:44:04;101357.47;;;19.62;63.18
62051;BME280;48008;51.204;6.766;2022-10-31T11:46:38;101353.16;;;19.33;64.12
62051;BME280;48008;51.204;6.766;2022-10-31T11:49:15;101335.88;;;19.14;65.64
62051;BME280;48008;51.204;6.766;2022-10-31T11:51:43;101314.59;;;18.69;65.87
62051;BME280;48008;51.204;6.766;2022-10-31T11:54:25;101311.66;;;18.86;66.71
62051;BME280;48008;51.204;6.766;2022-10-31T11:56:54;101317.88;;;18.65;66.83
62051;BME280;48008;51.204;6.766;2022-10-31T11:59:25;101312.81;;;18.76;67.52
62051;BME280;48008;51.204;6.766;2022-10-31T12:01:53;101309.50;;;18.74;67.70
62051;BME280;48008;51.204;6.766;2022-10-31T12:04:29;101311.47;;;18.66;67.31
62051;BME280;48008;51.204;6.766;2022-10-31T12:06:58;101306.19;;;18.79;67.61
62051;BME280;48008;51.204;6.766;2022-10-31T12:09:27;101299.13;;;18.71;68.05
62051;BME280;48008;51.204;6.766;2022-10-31T12:12:11;101290.84;;;18.94;67.76
62051;BME280;48008;51.204;6.766;2022-10-31T12:15:04;101292.75;;;19.35;65.86
62051;BME280;48008;51.204;6.766;2022-10-31T12:17:45;101290.06;;;19.77;64.63
62051;BME280;48008;51.204;6.766;2022-10-31T12:20:28;101282.22;;;19.82;64.95
62051;BME280;48008;51.204;6.766;2022-10-31T12:23:08;101276.09;;;20.08;63.10
62051;BME280;48008;51.204;6.766;2022-10-31T12:34:01;101251.69;;;20.70;58.10
62051;BME280;48008;51.204;6.766;2022-10-31T12:39:33;101248.41;;;20.61;57.96
62051;BME280;48008;51.204;6.766;2022-10-31T12:42:29;101252.50;;;20.57;57.99
62051;BME280;48008;51.204;6.766;2022-10-31T12:45:25;101249.56;;;21.05;55.86
62051;BME280;48008;51.204;6.766;2022-10-31T12:49:27;101244.88;;;21.53;52.69
62051;BME280;48008;51.204;6.766;2022-10-31T12:54:42;101212.22;;;21.61;53.00
62051;BME280;48008;51.204;6.766;2022-10-31T12:57:31;101210.31;;;21.68;53.69
62051;BME280;48008;51.204;6.766;2022-10-31T13:00:20;101204.09;;;21.67;53.63
62051;BME280;48008;51.204;6.766;2022-10-31T13:03:18;101187.94;;;21.61;52.99
62051;BME280;48008;51.204;6.766;2022-10-31T13:05:49;101184.50;;;21.34;53.32
62051;BME280;48008;51.204;6.766;2022-10-31T13:08:31;101172.31;;;21.24;54.56
62051;BME280;48008;51.204;6.766;2022-10-31T13:11:08;101163.31;;;20.92;54.55
62051;BME280;48008;51.204;6.766;2022-10-31T13:13:57;101154.47;;;20.65;55.66
62051;BME280;48008;51.204;6.766;2022-10-31T13:16:30;101150.13;;;20.50;57.90
62051;BME280;48008;51.204;6.766;2022-10-31T13:19:08;101138.94;;;20.47;57.51
62051;BME280;48008;51.204;6.766;2022-10-31T13:21:42;101138.09;;;20.40;57.40
62051;BME280;48008;51.204;6.766;2022-10-31T13:24:19;101138.50;;;20.30;57.04
62051;BME280;48008;51.204;6.766;2022-10-31T13:26:50;101134.19;;;20.29;57.72
62051;BME280;48008;51.204;6.766;2022-10-31T13:29:23;101138.75;;;20.15;57.34
62051;BME280;48008;51.204;6.766;2022-10-31T13:31:52;101152.19;;;19.82;58.55
62051;BME280;48008;51.204;6.766;2022-10-31T13:34:32;101144.91;;;19.69;59.07
62051;BME280;48008;51.204;6.766;2022-10-31T13:37:05;101141.03;;;19.85;58.99
62051;BME280;48008;51.204;6.766;2022-10-31T13:39:49;101140.41;;;19.89;58.56
62051;BME280;48008;51.204;6.766;2022-10-31T13:42:31;101144.34;;;19.87;58.86
62051;BME280;48008;51.204;6.766;2022-10-31T13:45:21;101137.91;;;19.81;59.19
62051;BME280;48008;51.204;6.766;2022-10-31T13:50:28;101104.59;;;19.75;59.47
62051;BME280;48008;51.204;6.766;2022-10-31T13:56:15;101098.09;;;19.43;59.64
62051;BME280;48008;51.204;6.766;2022-10-31T13:58:58;101095.81;;;19.60;60.58
62051;BME280;48008;51.204;6.766;2022-10-31T14:01:26;101085.28;;;19.52;60.93
62051;BME280;48008;51.204;6.766;2022-10-31T14:04:00;101088.97;;;19.37;59.93
62051;BME280;48008;51.204;6.766;2022-10-31T14:06:42;101081.50;;;19.46;59.81
62051;BME280;48008;51.204;6.766;2022-10-31T14:09:21;101079.88;;;19.59;60.20
62051;BME280;48008;51.204;6.766;2022-10-31T14:11:48;101084.19;;;19.46;60.24